sensor_id;sensor_type;location;lat;lon;timestamp;P1;durP1;ratioP1;P2;durP2;ratioP2
4758;SDS011;2393;50.560;12.636;2023-08-17T00:01:32;4.63;;;4.33;;
4758;SDS011;2393;50.560;12.636;2023-08-17T00:04:01;6.27;;;5.17;;
4758;SDS011;2393;50.560;12.636;2023-08-17T00:06:30;6.10;;;4.40;;
4758;SDS011;2393;50.560;12.636;2023-08-17T00:09:00;6.30;;;4.70;;
4758;SDS011;2393;50.560;12.636;2023-08-17T00:11:32;10.37;;;5.23;;
4758;SDS011;2393;50.560;12.636;2023-08-17T00:14:02;5.37;;;4.87;;
4758;SDS011;2393;50.560;12.636;2023-08-17T00:16:31;6.03;;;4.70;;
4758;SDS011;2393;50.560;12.636;2023-08-17T00:19:01;7.37;;;5.30;;
4758;SDS011;2393;50.560;12.636;2023-08-17T00:21:30;8.83;;;6.03;;
4758;SDS011;2393;50.560;12.636;2023-08-17T00:23:59;7.10;;;5.30;;
4758;SDS011;2393;50.560;12.636;2023-08-17T00:26:28;5.90;;;5.40;;
4758;SDS011;2393;50.560;12.636;2023-08-17T00:28:59;6.53;;;4.80;;
4758;SDS011;2393;50.560;12.636;2023-08-17T00:31:28;6.93;;;5.00;;
4758;SDS011;2393;50.560;12.636;2023-08-17T00:33:57;5.17;;;4.77;;
4758;SDS011;2393;50.560;12.636;2023-08-17T00:36:27;9.70;;;4.40;;
4758;SDS011;2393;50.560;12.636;2023-08-17T00:38:56;4.80;;;4.50;;
4758;SDS011;2393;50.560;12.636;2023-08-17T00:41:26;4.70;;;4.30;;
4758;SDS011;2393;50.560;12.636;2023-08-17T00:43:55;5.50;;;5.00;;
4758;SDS011;2393;50.560;12.636;2023-08-17T00:46:26;8.57;;;5.20;;
4758;SDS011;2393;50.560;12.636;2023-08-17T00:48:56;5.70;;;4.43;;
4758;SDS011;2393;50.560;12.636;2023-08-17T00:51:26;5.50;;;4.90;;
4758;SDS011;2393;50.560;12.636;2023-08-17T00:53:57;5.47;;;5.00;;
4758;SDS011;2393;50.560;12.636;2023-08-17T00:56:28;5.37;;;4.87;;
4758;SDS011;2393;50.560;12.636;2023-08-17T00:58:58;5.53;;;5.03;;
4758;SDS011;2393;50.560;12.636;2023-08-17T01:01:29;8.03;;;4.80;;
4758;SDS011;2393;50.560;12.636;2023-08-17T01:03:59;5.37;;;4.37;;
4758;SDS011;2393;50.560;12.636;2023-08-17T01:06:28;4.70;;;4.30;;
4758;SDS011;2393;50.560;12.636;2023-08-17T01:08:57;4.40;;;4.00;;
4758;SDS011;2393;50.560;12.636;2023-08-17T01:11:27;4.13;;;3.83;;
4758;SDS011;2393;50.560;12.636;2023-08-17T01:14:09;9.90;;;4.03;;
4758;SDS011;2393;50.560;12.636;2023-08-17T01:16:47;6.80;;;4.93;;
4758;SDS011;2393;50.560;12.636;2023-08-17T01:19:24;4.93;;;4.53;;
4758;SDS011;2393;50.560;12.636;2023-08-17T01:21:56;6.00;;;4.07;;
4758;SDS011;2393;50.560;12.636;2023-08-17T01:24:35;4.67;;;4.23;;
4758;SDS011;2393;50.560;12.636;2023-08-17T01:27:05;7.43;;;4.50;;
4758;SDS011;2393;50.560;12.636;2023-08-17T01:29:35;5.13;;;4.67;;
4758;SDS011;2393;50.560;12.636;2023-08-17T01:32:06;7.00;;;5.27;;
4758;SDS011;2393;50.560;12.636;2023-08-17T01:34:43;5.40;;;4.90;;
4758;SDS011;2393;50.560;12.636;2023-08-17T01:37:17;5.53;;;5.07;;
4758;SDS011;2393;50.560;12.636;2023-08-17T01:39:52;6.30;;;4.43;;
4758;SDS011;2393;50.560;12.636;2023-08-17T01:42:25;6.70;;;5.13;;
4758;SDS011;2393;50.560;12.636;2023-08-17T01:44:54;11.03;;;4.00;;
4758;SDS011;2393;50.560;12.636;2023-08-17T01:47:24;4.80;;;4.40;;
4758;SDS011;2393;50.560;12.636;2023-08-17T01:49:54;4.73;;;4.33;;
4758;SDS011;2393;50.560;12.636;2023-08-17T01:52:26;4.50;;;3.70;;
4758;SDS011;2393;50.560;12.636;2023-08-17T01:54:58;4.10;;;3.80;;
4758;SDS011;2393;50.560;12.636;2023-08-17T01:57:27;5.17;;;4.77;;
4758;SDS011;2393;50.560;12.636;2023-08-17T01:59:56;5.20;;;4.70;;
4758;SDS011;2393;50.560;12.636;2023-08-17T02:05:20;5.80;;;4.57;;
4758;SDS011;2393;50.560;12.636;2023-08-17T02:07:49;5.40;;;4.47;;
4758;SDS011;2393;50.560;12.636;2023-08-17T02:10:20;7.20;;;4.77;;
4758;SDS011;2393;50.560;12.636;2023-08-17T02:12:49;7.10;;;4.40;;
4758;SDS011;2393;50.560;12.636;2023-08-17T02:15:27;9.17;;;6.70;;
4758;SDS011;2393;50.560;12.636;2023-08-17T02:17:59;5.93;;;5.30;;
4758;SDS011;2393;50.560;12.636;2023-08-17T02:20:29;9.43;;;7.13;;
4758;SDS011;2393;50.560;12.636;2023-08-17T02:23:00;7.20;;;6.47;;
4758;SDS011;2393;50.560;12.636;2023-08-17T02:25:31;6.13;;;5.33;;
4758;SDS011;2393;50.560;12.636;2023-08-17T02:28:03;10.30;;;6.10;;
4758;SDS011;2393;50.560;12.636;2023-08-17T02:30:32;12.43;;;7.10;;
4758;SDS011;2393;50.560;12.636;2023-08-17T02:33:02;7.70;;;6.60;;
4758;SDS011;2393;50.560;12.636;2023-08-17T02:35:31;6.87;;;5.93;;
4758;SDS011;2393;50.560;12.636;2023-08-17T02:38:02;10.90;;;7.10;;
4758;SDS011;2393;50.560;12.636;2023-08-17T02:40:33;11.40;;;8.40;;
4758;SDS011;2393;50.560;12.636;2023-08-17T02:43:02;8.73;;;6.43;;
4758;SDS011;2393;50.560;12.636;2023-08-17T02:45:33;7.80;;;7.00;;
4758;SDS011;2393;50.560;12.636;2023-08-17T02:48:03;9.17;;;7.20;;
4758;SDS011;2393;50.560;12.636;2023-08-17T02:50:33;11.60;;;7.10;;
4758;SDS011;2393;50.560;12.636;2023-08-17T02:53:02;7.23;;;6.13;;
4758;SDS011;2393;50.560;12.636;2023-08-17T02:55:33;6.67;;;5.30;;
4758;SDS011;2393;50.560;12.636;2023-08-17T02:58:03;6.97;;;6.27;;
4758;SDS011;2393;50.560;12.636;2023-08-17T03:00:32;7.87;;;7.17;;
4758;SDS011;2393;50.560;12.636;2023-08-17T03:03:01;8.77;;;6.20;;
4758;SDS011;2393;50.560;12.636;2023-08-17T03:05:31;7.50;;;6.60;;
4758;SDS011;2393;50.560;12.636;2023-08-17T03:08:00;8.57;;;7.43;;
4758;SDS011;2393;50.560;12.636;2023-08-17T03:10:29;11.63;;;7.97;;
4758;SDS011;2393;50.560;12.636;2023-08-17T03:13:00;12.37;;;9.80;;
4758;SDS011;2393;50.560;12.636;2023-08-17T03:15:29;17.90;;;12.63;;
4758;SDS011;2393;50.560;12.636;2023-08-17T03:17:58;20.63;;;14.53;;
4758;SDS011;2393;50.560;12.636;2023-08-17T03:20:28;29.03;;;17.13;;
4758;SDS011;2393;50.560;12.636;2023-08-17T03:22:57;32.13;;;20.00;;
4758;SDS011;2393;50.560;12.636;2023-08-17T03:25:26;39.47;;;22.17;;
4758;SDS011;2393;50.560;12.636;2023-08-17T03:27:56;45.20;;;25.80;;
4758;SDS011;2393;50.560;12.636;2023-08-17T03:30:27;41.90;;;25.20;;
4758;SDS011;2393;50.560;12.636;2023-08-17T03:32:56;52.10;;;26.30;;
4758;SDS011;2393;50.560;12.636;2023-08-17T03:35:25;47.40;;;27.97;;
4758;SDS011;2393;50.560;12.636;2023-08-17T03:37:54;57.20;;;31.17;;
4758;SDS011;2393;50.560;12.636;2023-08-17T03:40:23;57.60;;;32.60;;
4758;SDS011;2393;50.560;12.636;2023-08-17T03:42:53;51.33;;;30.40;;
4758;SDS011;2393;50.560;12.636;2023-08-17T03:45:22;48.90;;;28.00;;
4758;SDS011;2393;50.560;12.636;2023-08-17T03:47:53;51.67;;;27.60;;
4758;SDS011;2393;50.560;12.636;2023-08-17T03:50:22;33.33;;;23.00;;
4758;SDS011;2393;50.560;12.636;2023-08-17T03:52:54;36.80;;;23.10;;
4758;SDS011;2393;50.560;12.636;2023-08-17T03:55:23;42.60;;;24.60;;
4758;SDS011;2393;50.560;12.636;2023-08-17T03:57:52;40.33;;;23.30;;
4758;SDS011;2393;50.560;12.636;2023-08-17T04:00:21;36.27;;;22.30;;
4758;SDS011;2393;50.560;12.636;2023-08-17T04:02:57;29.40;;;21.00;;
4758;SDS011;2393;50.560;12.636;2023-08-17T04:05:27;39.00;;;23.77;;
4758;SDS011;2393;50.560;12.636;2023-08-17T04:07:58;24.67;;;18.40;;
4758;SDS011;2393;50.560;12.636;2023-08-17T04:10:29;24.80;;;16.13;;
4758;SDS011;2393;50.560;12.636;2023-08-17T04:12:58;25.47;;;17.00;;
4758;SDS011;2393;50.560;12.636;2023-08-17T04:15:28;29.80;;;17.60;;
4758;SDS011;2393;50.560;12.636;2023-08-17T04:17:59;18.73;;;13.03;;
4758;SDS011;2393;50.560;12.636;2023-08-17T04:20:29;18.17;;;13.43;;
4758;SDS011;2393;50.560;12.636;2023-08-17T04:22:58;26.67;;;15.00;;
4758;SDS011;2393;50.560;12.636;2023-08-17T04:25:27;21.40;;;15.70;;
4758;SDS011;2393;50.560;12.636;2023-08-17T04:27:57;20.97;;;13.53;;
4758;SDS011;2393;50.560;12.636;2023-08-17T04:30:26;23.13;;;15.97;;
4758;SDS011;2393;50.560;12.636;2023-08-17T04:33:00;21.00;;;13.73;;
4758;SDS011;2393;50.560;12.636;2023-08-17T04:35:30;13.40;;;9.60;;
4758;SDS011;2393;50.560;12.636;2023-08-17T04:38:00;15.63;;;10.90;;
4758;SDS011;2393;50.560;12.636;2023-08-17T04:40:29;9.87;;;7.90;;
4758;SDS011;2393;50.560;12.636;2023-08-17T04:42:59;13.27;;;8.10;;
4758;SDS011;2393;50.560;12.636;2023-08-17T04:45:29;7.93;;;6.47;;
4758;SDS011;2393;50.560;12.636;2023-08-17T04:48:01;7.90;;;4.93;;
4758;SDS011;2393;50.560;12.636;2023-08-17T04:50:31;5.80;;;5.20;;
4758;SDS011;2393;50.560;12.636;2023-08-17T04:53:01;8.60;;;4.20;;
4758;SDS011;2393;50.560;12.636;2023-08-17T04:55:31;7.13;;;4.43;;
4758;SDS011;2393;50.560;12.636;2023-08-17T04:58:00;3.80;;;3.50;;
4758;SDS011;2393;50.560;12.636;2023-08-17T05:00:29;7.43;;;4.60;;
4758;SDS011;2393;50.560;12.636;2023-08-17T05:02:58;3.97;;;3.23;;
4758;SDS011;2393;50.560;12.636;2023-08-17T05:05:34;3.27;;;3.07;;
4758;SDS011;2393;50.560;12.636;2023-08-17T05:08:08;3.20;;;3.00;;
4758;SDS011;2393;50.560;12.636;2023-08-17T05:10:37;4.90;;;4.40;;
4758;SDS011;2393;50.560;12.636;2023-08-17T05:13:07;4.57;;;4.17;;
4758;SDS011;2393;50.560;12.636;2023-08-17T05:15:36;4.53;;;4.23;;
4758;SDS011;2393;50.560;12.636;2023-08-17T05:18:07;5.10;;;3.77;;
4758;SDS011;2393;50.560;12.636;2023-08-17T05:20:39;6.17;;;4.83;;
4758;SDS011;2393;50.560;12.636;2023-08-17T05:23:09;6.20;;;5.60;;
4758;SDS011;2393;50.560;12.636;2023-08-17T05:25:49;6.80;;;6.10;;
4758;SDS011;2393;50.560;12.636;2023-08-17T05:28:18;4.80;;;4.40;;
4758;SDS011;2393;50.560;12.636;2023-08-17T05:30:48;8.50;;;7.60;;
4758;SDS011;2393;50.560;12.636;2023-08-17T05:33:17;7.20;;;5.70;;
4758;SDS011;2393;50.560;12.636;2023-08-17T05:35:49;8.37;;;6.90;;
4758;SDS011;2393;50.560;12.636;2023-08-17T05:38:22;7.10;;;6.40;;
4758;SDS011;2393;50.560;12.636;2023-08-17T05:40:54;11.80;;;9.80;;
4758;SDS011;2393;50.560;12.636;2023-08-17T05:43:23;12.20;;;10.20;;
4758;SDS011;2393;50.560;12.636;2023-08-17T05:45:53;12.63;;;10.83;;
4758;SDS011;2393;50.560;12.636;2023-08-17T05:48:22;15.10;;;11.73;;
4758;SDS011;2393;50.560;12.636;2023-08-17T05:50:52;12.10;;;10.10;;
4758;SDS011;2393;50.560;12.636;2023-08-17T05:53:24;12.00;;;9.50;;
4758;SDS011;2393;50.560;12.636;2023-08-17T05:55:53;14.07;;;10.90;;
4758;SDS011;2393;50.560;12.636;2023-08-17T05:58:23;19.23;;;13.87;;
4758;SDS011;2393;50.560;12.636;2023-08-17T06:00:52;21.93;;;13.87;;
4758;SDS011;2393;50.560;12.636;2023-08-17T06:03:22;17.90;;;12.80;;
4758;SDS011;2393;50.560;12.636;2023-08-17T06:05:53;21.03;;;13.80;;
4758;SDS011;2393;50.560;12.636;2023-08-17T06:08:23;24.20;;;15.73;;
4758;SDS011;2393;50.560;12.636;2023-08-17T06:10:52;33.50;;;20.43;;
4758;SDS011;2393;50.560;12.636;2023-08-17T06:13:21;18.00;;;13.23;;
4758;SDS011;2393;50.560;12.636;2023-08-17T06:15:50;18.90;;;12.97;;
4758;SDS011;2393;50.560;12.636;2023-08-17T06:18:19;12.03;;;9.83;;
4758;SDS011;2393;50.560;12.636;2023-08-17T06:20:51;17.17;;;11.47;;
4758;SDS011;2393;50.560;12.636;2023-08-17T06:23:23;13.23;;;10.43;;
4758;SDS011;2393;50.560;12.636;2023-08-17T06:25:55;13.50;;;10.73;;
4758;SDS011;2393;50.560;12.636;2023-08-17T06:28:32;12.67;;;10.23;;
4758;SDS011;2393;50.560;12.636;2023-08-17T06:31:01;13.60;;;9.60;;
4758;SDS011;2393;50.560;12.636;2023-08-17T06:33:30;14.97;;;10.93;;
4758;SDS011;2393;50.560;12.636;2023-08-17T06:35:59;16.20;;;11.70;;
4758;SDS011;2393;50.560;12.636;2023-08-17T06:38:30;16.37;;;11.90;;
4758;SDS011;2393;50.560;12.636;2023-08-17T06:40:59;18.77;;;12.07;;
4758;SDS011;2393;50.560;12.636;2023-08-17T06:43:28;16.20;;;11.60;;
4758;SDS011;2393;50.560;12.636;2023-08-17T06:45:58;18.60;;;12.10;;
4758;SDS011;2393;50.560;12.636;2023-08-17T06:48:28;16.20;;;12.43;;
4758;SDS011;2393;50.560;12.636;2023-08-17T06:50:58;18.53;;;12.60;;
4758;SDS011;2393;50.560;12.636;2023-08-17T06:53:27;21.70;;;14.27;;
4758;SDS011;2393;50.560;12.636;2023-08-17T06:55:58;19.27;;;13.07;;
4758;SDS011;2393;50.560;12.636;2023-08-17T06:58:28;22.97;;;15.50;;
4758;SDS011;2393;50.560;12.636;2023-08-17T07:00:57;26.47;;;15.50;;
4758;SDS011;2393;50.560;12.636;2023-08-17T07:03:27;22.30;;;15.47;;
4758;SDS011;2393;50.560;12.636;2023-08-17T07:05:56;34.70;;;17.10;;
4758;SDS011;2393;50.560;12.636;2023-08-17T07:08:26;22.17;;;15.20;;
4758;SDS011;2393;50.560;12.636;2023-08-17T07:10:57;23.80;;;15.53;;
4758;SDS011;2393;50.560;12.636;2023-08-17T07:13:28;26.33;;;16.40;;
4758;SDS011;2393;50.560;12.636;2023-08-17T07:15:58;24.43;;;15.37;;
4758;SDS011;2393;50.560;12.636;2023-08-17T07:18:28;20.20;;;15.10;;
4758;SDS011;2393;50.560;12.636;2023-08-17T07:20:57;23.50;;;15.70;;
4758;SDS011;2393;50.560;12.636;2023-08-17T07:23:26;25.07;;;16.50;;
4758;SDS011;2393;50.560;12.636;2023-08-17T07:25:59;25.87;;;15.43;;
4758;SDS011;2393;50.560;12.636;2023-08-17T07:28:29;23.37;;;15.70;;
4758;SDS011;2393;50.560;12.636;2023-08-17T07:30:58;28.23;;;16.33;;
4758;SDS011;2393;50.560;12.636;2023-08-17T07:33:27;28.67;;;18.10;;
4758;SDS011;2393;50.560;12.636;2023-08-17T07:35:56;23.57;;;16.33;;
4758;SDS011;2393;50.560;12.636;2023-08-17T07:38:25;30.43;;;16.83;;
4758;SDS011;2393;50.560;12.636;2023-08-17T07:40:54;23.73;;;15.37;;
4758;SDS011;2393;50.560;12.636;2023-08-17T07:43:26;26.40;;;15.47;;
4758;SDS011;2393;50.560;12.636;2023-08-17T07:45:55;26.40;;;15.53;;
4758;SDS011;2393;50.560;12.636;2023-08-17T07:48:25;26.37;;;15.57;;
4758;SDS011;2393;50.560;12.636;2023-08-17T07:50:55;29.47;;;17.80;;
4758;SDS011;2393;50.560;12.636;2023-08-17T07:53:24;31.07;;;18.07;;
4758;SDS011;2393;50.560;12.636;2023-08-17T07:55:53;26.10;;;16.90;;
4758;SDS011;2393;50.560;12.636;2023-08-17T07:58:26;20.57;;;13.53;;
4758;SDS011;2393;50.560;12.636;2023-08-17T08:00:55;25.43;;;15.07;;
4758;SDS011;2393;50.560;12.636;2023-08-17T08:03:24;18.20;;;12.93;;
4758;SDS011;2393;50.560;12.636;2023-08-17T08:05:54;20.20;;;13.53;;
4758;SDS011;2393;50.560;12.636;2023-08-17T08:08:24;23.37;;;14.50;;
4758;SDS011;2393;50.560;12.636;2023-08-17T08:10:53;16.97;;;11.60;;
4758;SDS011;2393;50.560;12.636;2023-08-17T08:13:27;15.53;;;11.77;;
4758;SDS011;2393;50.560;12.636;2023-08-17T08:15:58;19.97;;;12.60;;
4758;SDS011;2393;50.560;12.636;2023-08-17T08:18:27;13.33;;;11.60;;
4758;SDS011;2393;50.560;12.636;2023-08-17T08:20:57;25.13;;;10.70;;
4758;SDS011;2393;50.560;12.636;2023-08-17T08:23:27;21.23;;;12.77;;
4758;SDS011;2393;50.560;12.636;2023-08-17T08:25:56;17.67;;;11.73;;
4758;SDS011;2393;50.560;12.636;2023-08-17T08:28:28;17.50;;;11.30;;
4758;SDS011;2393;50.560;12.636;2023-08-17T08:31:00;16.17;;;11.30;;
4758;SDS011;2393;50.560;12.636;2023-08-17T08:33:31;16.87;;;11.37;;
4758;SDS011;2393;50.560;12.636;2023-08-17T08:36:01;23.43;;;12.43;;
4758;SDS011;2393;50.560;12.636;2023-08-17T08:38:30;14.73;;;10.77;;
4758;SDS011;2393;50.560;12.636;2023-08-17T08:40:59;16.17;;;11.33;;
4758;SDS011;2393;50.560;12.636;2023-08-17T08:43:31;18.23;;;12.03;;
4758;SDS011;2393;50.560;12.636;2023-08-17T08:46:00;15.23;;;11.27;;
4758;SDS011;2393;50.560;12.636;2023-08-17T08:48:31;13.27;;;10.93;;
4758;SDS011;2393;50.560;12.636;2023-08-17T08:51:00;15.67;;;11.17;;
4758;SDS011;2393;50.560;12.636;2023-08-17T08:53:34;13.03;;;10.17;;
4758;SDS011;2393;50.560;12.636;2023-08-17T08:56:07;16.63;;;11.43;;
4758;SDS011;2393;50.560;12.636;2023-08-17T08:58:42;15.53;;;10.63;;
4758;SDS011;2393;50.560;12.636;2023-08-17T09:01:12;17.70;;;11.50;;
4758;SDS011;2393;50.560;12.636;2023-08-17T09:03:42;15.57;;;9.60;;
4758;SDS011;2393;50.560;12.636;2023-08-17T09:06:15;12.17;;;9.83;;
4758;SDS011;2393;50.560;12.636;2023-08-17T09:08:46;10.90;;;8.90;;
4758;SDS011;2393;50.560;12.636;2023-08-17T09:11:18;14.00;;;11.10;;
4758;SDS011;2393;50.560;12.636;2023-08-17T09:13:49;13.10;;;10.30;;
4758;SDS011;2393;50.560;12.636;2023-08-17T09:16:19;11.43;;;8.90;;
4758;SDS011;2393;50.560;12.636;2023-08-17T09:18:52;13.90;;;10.83;;
4758;SDS011;2393;50.560;12.636;2023-08-17T09:21:22;15.00;;;9.77;;
4758;SDS011;2393;50.560;12.636;2023-08-17T09:23:52;11.43;;;9.10;;
4758;SDS011;2393;50.560;12.636;2023-08-17T09:26:29;14.50;;;10.87;;
4758;SDS011;2393;50.560;12.636;2023-08-17T09:29:02;12.43;;;9.83;;
4758;SDS011;2393;50.560;12.636;2023-08-17T09:31:45;13.00;;;9.43;;
4758;SDS011;2393;50.560;12.636;2023-08-17T09:34:14;16.10;;;10.80;;
4758;SDS011;2393;50.560;12.636;2023-08-17T09:36:45;19.13;;;11.10;;
4758;SDS011;2393;50.560;12.636;2023-08-17T09:39:15;12.00;;;10.40;;
4758;SDS011;2393;50.560;12.636;2023-08-17T09:41:45;13.00;;;10.37;;
4758;SDS011;2393;50.560;12.636;2023-08-17T09:44:17;11.07;;;9.97;;
4758;SDS011;2393;50.560;12.636;2023-08-17T09:46:46;11.67;;;9.70;;
4758;SDS011;2393;50.560;12.636;2023-08-17T09:49:17;11.90;;;10.17;;
4758;SDS011;2393;50.560;12.636;2023-08-17T09:51:46;10.40;;;9.30;;
4758;SDS011;2393;50.560;12.636;2023-08-17T09:54:19;12.13;;;9.30;;
4758;SDS011;2393;50.560;12.636;2023-08-17T09:56:50;12.80;;;9.93;;
4758;SDS011;2393;50.560;12.636;2023-08-17T09:59:21;16.17;;;9.87;;
4758;SDS011;2393;50.560;12.636;2023-08-17T10:01:51;17.83;;;10.87;;
4758;SDS011;2393;50.560;12.636;2023-08-17T10:04:23;13.10;;;9.23;;
4758;SDS011;2393;50.560;12.636;2023-08-17T10:06:57;11.40;;;9.10;;
4758;SDS011;2393;50.560;12.636;2023-08-17T10:09:31;15.07;;;9.83;;
4758;SDS011;2393;50.560;12.636;2023-08-17T10:12:06;9.60;;;8.70;;
4758;SDS011;2393;50.560;12.636;2023-08-17T10:14:44;12.43;;;9.30;;
4758;SDS011;2393;50.560;12.636;2023-08-17T10:17:19;19.60;;;9.77;;
4758;SDS011;2393;50.560;12.636;2023-08-17T10:19:56;10.07;;;9.10;;
4758;SDS011;2393;50.560;12.636;2023-08-17T10:22:28;9.77;;;8.17;;
4758;SDS011;2393;50.560;12.636;2023-08-17T10:25:03;8.43;;;7.57;;
4758;SDS011;2393;50.560;12.636;2023-08-17T10:27:34;10.20;;;8.70;;
4758;SDS011;2393;50.560;12.636;2023-08-17T10:30:06;8.20;;;7.40;;
4758;SDS011;2393;50.560;12.636;2023-08-17T10:32:36;9.83;;;8.83;;
4758;SDS011;2393;50.560;12.636;2023-08-17T10:35:06;12.10;;;9.20;;
4758;SDS011;2393;50.560;12.636;2023-08-17T10:37:36;9.47;;;8.40;;
4758;SDS011;2393;50.560;12.636;2023-08-17T10:40:07;9.70;;;8.70;;
4758;SDS011;2393;50.560;12.636;2023-08-17T10:42:40;10.13;;;8.43;;
4758;SDS011;2393;50.560;12.636;2023-08-17T10:45:27;9.87;;;8.90;;
4758;SDS011;2393;50.560;12.636;2023-08-17T10:48:00;13.73;;;9.07;;
4758;SDS011;2393;50.560;12.636;2023-08-17T10:50:58;11.23;;;8.80;;
4758;SDS011;2393;50.560;12.636;2023-08-17T10:53:34;16.10;;;8.67;;
4758;SDS011;2393;50.560;12.636;2023-08-17T10:56:06;11.83;;;9.47;;
4758;SDS011;2393;50.560;12.636;2023-08-17T10:58:39;10.67;;;8.83;;
4758;SDS011;2393;50.560;12.636;2023-08-17T11:01:12;10.67;;;8.63;;
4758;SDS011;2393;50.560;12.636;2023-08-17T11:03:48;9.90;;;8.90;;
4758;SDS011;2393;50.560;12.636;2023-08-17T11:06:38;15.20;;;9.33;;
4758;SDS011;2393;50.560;12.636;2023-08-17T11:09:08;11.00;;;8.67;;
4758;SDS011;2393;50.560;12.636;2023-08-17T11:11:37;12.27;;;9.33;;
4758;SDS011;2393;50.560;12.636;2023-08-17T11:14:06;13.07;;;9.47;;
4758;SDS011;2393;50.560;12.636;2023-08-17T11:16:39;10.37;;;9.17;;
4758;SDS011;2393;50.560;12.636;2023-08-17T11:19:08;12.47;;;9.60;;
4758;SDS011;2393;50.560;12.636;2023-08-17T11:21:39;11.10;;;9.00;;
4758;SDS011;2393;50.560;12.636;2023-08-17T11:24:10;21.50;;;11.73;;
4758;SDS011;2393;50.560;12.636;2023-08-17T11:26:39;12.00;;;10.27;;
4758;SDS011;2393;50.560;12.636;2023-08-17T11:29:10;16.80;;;10.57;;
4758;SDS011;2393;50.560;12.636;2023-08-17T11:31:44;12.20;;;9.40;;
4758;SDS011;2393;50.560;12.636;2023-08-17T11:34:18;11.97;;;8.47;;
4758;SDS011;2393;50.560;12.636;2023-08-17T11:36:47;14.50;;;9.60;;
4758;SDS011;2393;50.560;12.636;2023-08-17T11:39:16;13.10;;;10.20;;
4758;SDS011;2393;50.560;12.636;2023-08-17T11:41:48;13.07;;;10.17;;
4758;SDS011;2393;50.560;12.636;2023-08-17T11:44:19;12.37;;;9.30;;
4758;SDS011;2393;50.560;12.636;2023-08-17T11:46:52;12.20;;;8.10;;
4758;SDS011;2393;50.560;12.636;2023-08-17T11:49:22;10.50;;;8.60;;
4758;SDS011;2393;50.560;12.636;2023-08-17T11:51:53;10.87;;;8.70;;
4758;SDS011;2393;50.560;12.636;2023-08-17T11:54:22;13.77;;;10.10;;
4758;SDS011;2393;50.560;12.636;2023-08-17T11:56:51;18.33;;;10.20;;
4758;SDS011;2393;50.560;12.636;2023-08-17T11:59:21;12.87;;;8.30;;
4758;SDS011;2393;50.560;12.636;2023-08-17T12:01:52;10.53;;;7.90;;
4758;SDS011;2393;50.560;12.636;2023-08-17T12:04:22;22.00;;;10.83;;
4758;SDS011;2393;50.560;12.636;2023-08-17T12:06:51;11.47;;;8.73;;
4758;SDS011;2393;50.560;12.636;2023-08-17T12:09:21;11.53;;;8.20;;
4758;SDS011;2393;50.560;12.636;2023-08-17T12:11:54;10.47;;;8.30;;
4758;SDS011;2393;50.560;12.636;2023-08-17T12:14:28;11.87;;;9.23;;
4758;SDS011;2393;50.560;12.636;2023-08-17T12:16:58;12.63;;;8.70;;
4758;SDS011;2393;50.560;12.636;2023-08-17T12:19:27;17.93;;;7.90;;
4758;SDS011;2393;50.560;12.636;2023-08-17T12:21:57;15.27;;;9.60;;
4758;SDS011;2393;50.560;12.636;2023-08-17T12:24:26;9.43;;;7.87;;
4758;SDS011;2393;50.560;12.636;2023-08-17T12:26:56;15.87;;;6.50;;
4758;SDS011;2393;50.560;12.636;2023-08-17T12:29:26;7.30;;;6.17;;
4758;SDS011;2393;50.560;12.636;2023-08-17T12:31:56;7.73;;;6.60;;
4758;SDS011;2393;50.560;12.636;2023-08-17T12:34:29;8.17;;;6.57;;
4758;SDS011;2393;50.560;12.636;2023-08-17T12:36:59;10.57;;;7.00;;
4758;SDS011;2393;50.560;12.636;2023-08-17T12:39:29;11.47;;;7.07;;
4758;SDS011;2393;50.560;12.636;2023-08-17T12:41:58;5.20;;;4.70;;
4758;SDS011;2393;50.560;12.636;2023-08-17T12:44:28;10.93;;;5.60;;
4758;SDS011;2393;50.560;12.636;2023-08-17T12:46:59;5.90;;;5.30;;
4758;SDS011;2393;50.560;12.636;2023-08-17T12:49:28;7.60;;;6.83;;
4758;SDS011;2393;50.560;12.636;2023-08-17T12:51:58;8.30;;;5.47;;
4758;SDS011;2393;50.560;12.636;2023-08-17T12:54:27;9.33;;;6.60;;
4758;SDS011;2393;50.560;12.636;2023-08-17T12:56:56;7.70;;;6.33;;
4758;SDS011;2393;50.560;12.636;2023-08-17T12:59:28;10.33;;;6.23;;
4758;SDS011;2393;50.560;12.636;2023-08-17T13:02:00;5.60;;;5.00;;
4758;SDS011;2393;50.560;12.636;2023-08-17T13:04:33;6.83;;;5.40;;
4758;SDS011;2393;50.560;12.636;2023-08-17T13:07:04;6.43;;;5.83;;
4758;SDS011;2393;50.560;12.636;2023-08-17T13:09:37;9.27;;;7.20;;
4758;SDS011;2393;50.560;12.636;2023-08-17T13:12:08;7.30;;;6.53;;
4758;SDS011;2393;50.560;12.636;2023-08-17T13:14:37;8.77;;;5.00;;
4758;SDS011;2393;50.560;12.636;2023-08-17T13:17:08;6.33;;;4.90;;
4758;SDS011;2393;50.560;12.636;2023-08-17T13:19:38;6.40;;;4.73;;
4758;SDS011;2393;50.560;12.636;2023-08-17T13:22:07;5.97;;;5.37;;
4758;SDS011;2393;50.560;12.636;2023-08-17T13:24:37;6.60;;;5.70;;
4758;SDS011;2393;50.560;12.636;2023-08-17T13:27:07;11.23;;;5.90;;
4758;SDS011;2393;50.560;12.636;2023-08-17T13:29:36;9.03;;;6.57;;
4758;SDS011;2393;50.560;12.636;2023-08-17T13:32:07;10.40;;;5.80;;
4758;SDS011;2393;50.560;12.636;2023-08-17T13:34:37;6.20;;;5.07;;
4758;SDS011;2393;50.560;12.636;2023-08-17T13:37:06;12.03;;;6.80;;
4758;SDS011;2393;50.560;12.636;2023-08-17T13:39:35;14.30;;;6.60;;
4758;SDS011;2393;50.560;12.636;2023-08-17T13:42:05;12.23;;;6.37;;
4758;SDS011;2393;50.560;12.636;2023-08-17T13:44:35;9.17;;;6.50;;
4758;SDS011;2393;50.560;12.636;2023-08-17T13:47:04;5.03;;;4.60;;
4758;SDS011;2393;50.560;12.636;2023-08-17T13:49:35;7.93;;;4.50;;
4758;SDS011;2393;50.560;12.636;2023-08-17T13:52:05;7.80;;;4.40;;
4758;SDS011;2393;50.560;12.636;2023-08-17T13:54:34;5.90;;;4.50;;
4758;SDS011;2393;50.560;12.636;2023-08-17T13:57:04;6.43;;;4.80;;
4758;SDS011;2393;50.560;12.636;2023-08-17T13:59:32;4.40;;;4.03;;
4758;SDS011;2393;50.560;12.636;2023-08-17T14:02:02;4.10;;;3.80;;
4758;SDS011;2393;50.560;12.636;2023-08-17T14:04:32;7.80;;;4.97;;
4758;SDS011;2393;50.560;12.636;2023-08-17T14:07:03;4.80;;;4.40;;
4758;SDS011;2393;50.560;12.636;2023-08-17T14:09:33;6.37;;;4.30;;
4758;SDS011;2393;50.560;12.636;2023-08-17T14:12:02;7.43;;;5.47;;
4758;SDS011;2393;50.560;12.636;2023-08-17T14:14:32;6.27;;;5.57;;
4758;SDS011;2393;50.560;12.636;2023-08-17T14:17:04;5.63;;;5.13;;
4758;SDS011;2393;50.560;12.636;2023-08-17T14:19:33;8.20;;;4.90;;
4758;SDS011;2393;50.560;12.636;2023-08-17T14:22:03;5.47;;;4.93;;
4758;SDS011;2393;50.560;12.636;2023-08-17T14:24:32;7.10;;;4.47;;
4758;SDS011;2393;50.560;12.636;2023-08-17T14:27:03;7.17;;;5.00;;
4758;SDS011;2393;50.560;12.636;2023-08-17T14:29:32;5.27;;;4.70;;
4758;SDS011;2393;50.560;12.636;2023-08-17T14:32:01;11.10;;;4.27;;
4758;SDS011;2393;50.560;12.636;2023-08-17T14:34:31;5.80;;;5.07;;
4758;SDS011;2393;50.560;12.636;2023-08-17T14:37:01;9.77;;;5.33;;
4758;SDS011;2393;50.560;12.636;2023-08-17T14:39:32;8.30;;;5.83;;
4758;SDS011;2393;50.560;12.636;2023-08-17T14:42:04;6.10;;;5.50;;
4758;SDS011;2393;50.560;12.636;2023-08-17T14:44:33;5.90;;;4.80;;
4758;SDS011;2393;50.560;12.636;2023-08-17T14:47:03;7.30;;;5.30;;
4758;SDS011;2393;50.560;12.636;2023-08-17T14:49:35;6.27;;;5.67;;
4758;SDS011;2393;50.560;12.636;2023-08-17T14:52:04;6.10;;;5.30;;
4758;SDS011;2393;50.560;12.636;2023-08-17T14:54:36;7.27;;;6.10;;
4758;SDS011;2393;50.560;12.636;2023-08-17T14:57:10;6.97;;;6.00;;
4758;SDS011;2393;50.560;12.636;2023-08-17T14:59:39;6.10;;;5.50;;
4758;SDS011;2393;50.560;12.636;2023-08-17T15:02:08;9.70;;;5.87;;
4758;SDS011;2393;50.560;12.636;2023-08-17T15:04:37;6.67;;;5.17;;
4758;SDS011;2393;50.560;12.636;2023-08-17T15:07:06;7.80;;;5.63;;
4758;SDS011;2393;50.560;12.636;2023-08-17T15:09:40;5.27;;;4.83;;
4758;SDS011;2393;50.560;12.636;2023-08-17T15:12:08;11.03;;;6.67;;